createdAt,value
2017-07-19T00:00:36.662Z,11.80
2017-07-19T00:03:04.177Z,9.83
2017-07-19T00:05:31.714Z,9.83
2017-07-19T00:07:59.232Z,11.53
2017-07-19T00:10:27.538Z,10.17
2017-07-19T00:12:55.054Z,10.30
2017-07-19T00:15:22.570Z,10.00
2017-07-19T00:17:50.103Z,9.00
2017-07-19T00:20:17.618Z,10.57
2017-07-19T00:22:45.155Z,8.83
2017-07-19T00:25:12.675Z,10.03
2017-07-19T00:27:40.211Z,10.73
2017-07-19T00:30:07.725Z,9.57
2017-07-19T00:32:36.029Z,12.03
2017-07-19T00:35:03.555Z,11.73
2017-07-19T00:37:31.875Z,14.20
2017-07-19T00:39:59.408Z,13.10
2017-07-19T00:42:26.938Z,12.90
2017-07-19T00:44:54.486Z,10.20
2017-07-19T00:47:22.006Z,9.40
2017-07-19T00:49:49.545Z,10.87
2017-07-19T00:52:17.482Z,9.23
2017-07-19T00:54:45.043Z,10.37
2017-07-19T00:57:12.561Z,10.47
2017-07-19T00:59:40.097Z,10.80
2017-07-19T01:02:08.384Z,7.30
2017-07-19T01:04:35.926Z,9.93
2017-07-19T01:07:03.441Z,8.97
2017-07-19T01:09:30.965Z,9.90
2017-07-19T01:11:58.510Z,11.43
2017-07-19T01:14:26.042Z,11.27
2017-07-19T01:16:54.345Z,9.60
2017-07-19T01:19:21.867Z,12.73
2017-07-19T01:21:49.407Z,9.10
2017-07-19T01:24:16.929Z,11.17
2017-07-19T01:26:44.471Z,12.57
2017-07-19T01:29:12.763Z,12.77
2017-07-19T01:31:40.302Z,12.30
2017-07-19T01:34:07.822Z,11.10
2017-07-19T01:36:35.362Z,12.17
2017-07-19T01:39:02.883Z,9.97
2017-07-19T01:41:30.436Z,12.97
2017-07-19T01:43:57.957Z,13.37
2017-07-19T01:46:25.523Z,13.03
2017-07-19T01:48:53.070Z,14.20
2017-07-19T01:51:21.369Z,12.70
2017-07-19T01:53:48.920Z,12.60
2017-07-19T01:56:16.446Z,11.10
2017-07-19T01:58:43.987Z,10.33
2017-07-19T02:01:11.519Z,14.57
2017-07-19T02:03:39.071Z,12.67
2017-07-19T02:06:06.613Z,12.73
2017-07-19T02:08:34.153Z,12.10
2017-07-19T02:11:01.678Z,10.30
2017-07-19T02:13:29.201Z,10.73
2017-07-19T02:15:56.734Z,9.00
2017-07-19T02:18:25.022Z,8.53
2017-07-19T02:20:52.563Z,10.87
2017-07-19T02:23:20.854Z,12.97
2017-07-19T02:25:49.162Z,11.23
2017-07-19T02:28:16.686Z,10.63
2017-07-19T02:30:44.992Z,10.00
2017-07-19T02:33:12.508Z,9.30
2017-07-19T02:35:40.823Z,10.33
2017-07-19T02:38:08.351Z,9.90
2017-07-19T02:40:35.865Z,9.63
2017-07-19T02:43:03.402Z,8.03
2017-07-19T02:45:30.923Z,8.97
2017-07-19T02:47:58.463Z,8.20
2017-07-19T02:50:26.751Z,9.70
2017-07-19T02:52:55.055Z,9.00
2017-07-19T02:55:22.567Z,8.83
2017-07-19T02:57:50.101Z,8.23
2017-07-19T03:00:17.620Z,10.00
2017-07-19T03:02:45.167Z,10.07
2017-07-19T03:05:12.686Z,10.60
2017-07-19T03:07:40.206Z,12.47
2017-07-19T03:10:08.509Z,9.90
2017-07-19T03:12:36.033Z,11.10
2017-07-19T03:15:04.338Z,9.90
2017-07-19T03:17:31.854Z,10.10
2017-07-19T03:19:59.390Z,9.17
2017-07-19T03:22:48.743Z,8.67
2017-07-19T03:25:16.286Z,9.43
2017-07-19T03:27:44.570Z,8.40
2017-07-19T03:30:12.110Z,11.20
2017-07-19T03:32:40.393Z,11.20
2017-07-19T03:35:08.711Z,11.93
2017-07-19T03:37:36.234Z,12.07
2017-07-19T03:40:03.763Z,10.23
2017-07-19T03:42:31.308Z,8.80
2017-07-19T03:44:58.822Z,8.40
2017-07-19T03:47:26.363Z,8.57
2017-07-19T03:49:53.886Z,10.87
2017-07-19T03:52:21.435Z,11.27
2017-07-19T03:54:48.959Z,11.23
2017-07-19T03:57:16.497Z,10.23
2017-07-19T03:59:44.013Z,10.53
2017-07-19T04:02:12.320Z,9.60
2017-07-19T04:04:39.835Z,9.63
2017-07-19T04:07:08.120Z,9.00
2017-07-19T04:09:35.665Z,9.23
2017-07-19T04:12:03.953Z,10.60
2017-07-19T04:14:31.498Z,10.40
2017-07-19T04:16:59.778Z,9.80
2017-07-19T04:19:27.315Z,9.60
2017-07-19T04:21:54.848Z,10.30
2017-07-19T04:24:22.399Z,10.97
2017-07-19T04:26:49.927Z,9.00
2017-07-19T04:29:17.459Z,9.10
2017-07-19T04:31:44.974Z,10.70
2017-07-19T04:34:12.494Z,12.73
2017-07-19T04:36:40.034Z,14.93
2017-07-19T04:39:08.334Z,15.83
2017-07-19T04:41:35.875Z,11.13
2017-07-19T04:44:03.411Z,10.17
2017-07-19T04:46:31.714Z,11.60
2017-07-19T04:49:00.006Z,11.23
2017-07-19T04:51:27.551Z,11.23
2017-07-19T04:53:55.092Z,12.60
2017-07-19T04:56:22.643Z,11.70
2017-07-19T04:58:50.163Z,10.90
2017-07-19T05:01:17.698Z,10.03
2017-07-19T05:03:45.222Z,10.43
2017-07-19T05:06:13.507Z,11.47
2017-07-19T05:08:41.055Z,11.43
2017-07-19T05:11:09.346Z,12.13
2017-07-19T05:13:36.886Z,12.67
2017-07-19T05:16:05.178Z,10.10
2017-07-19T05:18:32.713Z,9.77
2017-07-19T05:21:00.239Z,10.60
2017-07-19T05:23:27.774Z,9.90
2017-07-19T05:25:55.293Z,11.30
2017-07-19T05:28:22.831Z,9.47
2017-07-19T05:30:50.370Z,9.90
2017-07-19T05:33:17.888Z,10.23
2017-07-19T05:35:45.429Z,10.10
2017-07-19T05:38:12.953Z,10.23
2017-07-19T05:40:40.489Z,9.10
2017-07-19T05:43:08.002Z,9.93
2017-07-19T05:45:35.552Z,12.87
2017-07-19T05:48:03.078Z,10.47
2017-07-19T05:50:30.615Z,9.57
2017-07-19T05:52:58.157Z,10.33
2017-07-19T05:55:25.683Z,8.70
2017-07-19T05:57:53.223Z,9.80
2017-07-19T06:00:21.515Z,10.10
2017-07-19T06:02:49.062Z,10.20
2017-07-19T06:05:16.588Z,10.00
2017-07-19T06:07:44.149Z,8.83
2017-07-19T06:10:11.675Z,9.13
2017-07-19T06:12:39.205Z,10.57
2017-07-19T06:15:06.742Z,8.93
2017-07-19T06:17:34.269Z,13.57
2017-07-19T06:20:01.816Z,8.07
2017-07-19T06:22:29.334Z,8.90
2017-07-19T06:24:56.881Z,9.00
2017-07-19T06:27:24.394Z,8.60
2017-07-19T06:29:52.702Z,8.57
2017-07-19T06:32:20.218Z,9.60
2017-07-19T06:34:47.829Z,11.40
2017-07-19T06:37:16.125Z,9.57
2017-07-19T06:39:43.653Z,8.90
2017-07-19T06:42:11.955Z,9.00
2017-07-19T06:44:39.469Z,8.20
2017-07-19T06:47:07.009Z,9.63
2017-07-19T06:49:34.564Z,10.37
2017-07-19T06:52:02.109Z,8.80
2017-07-19T06:54:29.626Z,7.93
2017-07-19T06:56:57.930Z,8.80
2017-07-19T06:59:25.453Z,8.00
2017-07-19T07:01:52.994Z,8.73
2017-07-19T07:04:21.339Z,8.33
2017-07-19T07:06:48.850Z,8.93
2017-07-19T07:09:16.394Z,9.23
2017-07-19T07:11:43.922Z,9.13
2017-07-19T07:14:11.460Z,8.37
2017-07-19T07:16:38.987Z,10.93
2017-07-19T07:19:06.526Z,8.43
2017-07-19T07:21:34.051Z,8.60
2017-07-19T07:24:01.591Z,9.60
2017-07-19T07:26:29.111Z,8.20
2017-07-19T07:28:56.659Z,9.00
2017-07-19T07:31:24.193Z,9.13
2017-07-19T07:33:52.478Z,9.10
2017-07-19T07:36:20.798Z,10.23
2017-07-19T07:38:48.322Z,8.10
2017-07-19T07:41:16.634Z,9.17
2017-07-19T07:43:44.154Z,9.07
2017-07-19T07:46:12.458Z,9.00
2017-07-19T07:48:39.979Z,8.27
2017-07-19T07:51:07.517Z,11.20
2017-07-19T07:53:35.035Z,8.67
2017-07-19T07:56:02.578Z,8.67
2017-07-19T07:58:30.102Z,9.47
2017-07-19T08:00:58.398Z,8.37
2017-07-19T08:03:25.936Z,8.17
2017-07-19T08:05:53.455Z,8.97
2017-07-19T08:08:20.996Z,8.40
2017-07-19T08:10:49.283Z,8.03
2017-07-19T08:13:16.824Z,9.60
2017-07-19T08:15:45.118Z,8.73
2017-07-19T08:18:12.668Z,11.07
2017-07-19T08:20:40.210Z,7.80
2017-07-19T08:23:07.742Z,7.67
2017-07-19T08:25:35.266Z,8.47
2017-07-19T08:28:02.802Z,8.00
2017-07-19T08:30:31.106Z,7.90
2017-07-19T08:32:58.624Z,7.70
2017-07-19T08:35:26.162Z,8.07
2017-07-19T08:37:53.682Z,8.50
2017-07-19T08:40:21.231Z,8.77
2017-07-19T08:42:48.756Z,8.20
2017-07-19T08:45:16.295Z,8.07
2017-07-19T08:47:44.582Z,7.63
2017-07-19T08:50:12.117Z,8.07
2017-07-19T08:52:39.632Z,7.10
2017-07-19T08:55:07.158Z,8.90
2017-07-19T08:57:34.693Z,8.43
2017-07-19T09:00:02.224Z,7.97
2017-07-19T09:02:29.762Z,7.23
2017-07-19T09:04:57.282Z,8.20
2017-07-19T09:07:24.830Z,8.00
2017-07-19T09:09:52.358Z,8.13
2017-07-19T09:12:19.907Z,9.50
2017-07-19T09:14:47.423Z,8.50
2017-07-19T09:17:14.946Z,11.30
2017-07-19T09:19:43.263Z,7.13
2017-07-19T09:22:10.784Z,8.87
2017-07-19T09:24:38.321Z,8.43
2017-07-19T09:27:05.842Z,8.57
2017-07-19T09:29:33.388Z,7.80
2017-07-19T09:32:00.908Z,9.33
2017-07-19T09:34:28.455Z,7.73
2017-07-19T09:36:55.975Z,7.07
2017-07-19T09:39:23.522Z,8.17
2017-07-19T09:41:51.047Z,8.70
2017-07-19T09:44:19.335Z,7.83
2017-07-19T09:46:46.870Z,7.80
2017-07-19T09:49:14.387Z,6.77
2017-07-19T09:51:41.927Z,6.37
2017-07-19T09:54:09.453Z,6.80
2017-07-19T09:56:36.990Z,6.27
2017-07-19T09:59:04.511Z,7.63
2017-07-19T10:01:32.055Z,6.40
2017-07-19T10:03:59.579Z,5.30
2017-07-19T10:06:27.111Z,5.43
2017-07-19T10:08:54.636Z,5.50
2017-07-19T10:11:22.186Z,5.70
2017-07-19T10:13:49.709Z,5.67
2017-07-19T10:16:17.242Z,5.20
2017-07-19T10:18:44.764Z,5.13
2017-07-19T10:21:12.312Z,5.17
2017-07-19T10:23:39.855Z,7.20
2017-07-19T10:26:07.375Z,9.77
2017-07-19T10:28:34.914Z,15.13
2017-07-19T10:31:02.430Z,5.60
2017-07-19T10:33:29.974Z,6.00
2017-07-19T10:35:57.490Z,4.47
2017-07-19T10:38:25.032Z,4.67
2017-07-19T10:40:52.551Z,6.10
2017-07-19T10:43:20.115Z,5.83
2017-07-19T10:45:48.415Z,5.07
2017-07-19T10:48:15.939Z,5.47
2017-07-19T10:50:44.244Z,7.30
2017-07-19T10:53:11.759Z,5.80
2017-07-19T10:55:40.067Z,7.50
2017-07-19T10:58:07.582Z,5.50
2017-07-19T11:00:35.119Z,5.83
2017-07-19T11:03:02.635Z,5.33
2017-07-19T11:05:30.183Z,6.27
2017-07-19T11:07:58.465Z,5.63
2017-07-19T11:10:26.765Z,5.20
2017-07-19T11:12:54.279Z,5.30
2017-07-19T11:15:21.822Z,5.60
2017-07-19T11:17:49.339Z,6.07
2017-07-19T11:20:16.863Z,6.10
2017-07-19T11:22:44.409Z,4.47
2017-07-19T11:25:11.922Z,4.93
2017-07-19T11:27:39.464Z,4.90
2017-07-19T11:30:07.005Z,10.03
2017-07-19T11:32:34.542Z,4.33
2017-07-19T11:35:02.063Z,3.30
2017-07-19T11:37:29.608Z,5.03
2017-07-19T11:39:57.139Z,4.27
2017-07-19T11:42:25.458Z,4.70
2017-07-19T11:44:52.977Z,3.33
2017-07-19T11:47:21.262Z,5.30
2017-07-19T11:49:48.802Z,3.53
2017-07-19T11:52:16.322Z,3.73
2017-07-19T11:54:43.870Z,4.50
2017-07-19T11:57:11.398Z,3.97
2017-07-19T11:59:39.322Z,3.97
2017-07-19T12:02:07.614Z,4.43
2017-07-19T12:04:35.151Z,3.83
2017-07-19T12:07:02.665Z,3.60
2017-07-19T12:09:30.204Z,4.07
2017-07-19T12:11:58.483Z,3.93
2017-07-19T12:14:26.796Z,6.07
2017-07-19T12:16:54.318Z,5.80
2017-07-19T12:19:22.627Z,3.10
2017-07-19T12:21:50.152Z,4.40
2017-07-19T12:24:17.699Z,3.73
2017-07-19T12:26:45.239Z,3.70
2017-07-19T12:29:12.756Z,4.07
2017-07-19T12:31:40.307Z,3.87
2017-07-19T12:34:07.831Z,4.50
2017-07-19T12:36:36.130Z,5.63
2017-07-19T12:39:03.651Z,4.10
2017-07-19T12:41:31.190Z,5.60
2017-07-19T12:43:58.707Z,3.93
2017-07-19T12:46:26.246Z,5.63
2017-07-19T12:48:53.767Z,4.17
2017-07-19T12:51:21.324Z,4.33
2017-07-19T12:53:48.846Z,4.93
2017-07-19T12:56:16.375Z,3.87
2017-07-19T12:58:43.915Z,9.27
2017-07-19T13:01:11.442Z,4.97
2017-07-19T13:03:38.977Z,4.60
2017-07-19T13:06:06.495Z,5.23
2017-07-19T13:08:34.034Z,6.67
2017-07-19T13:11:02.323Z,4.20
2017-07-19T13:13:30.633Z,6.30
2017-07-19T13:15:58.919Z,4.27
2017-07-19T13:18:26.439Z,5.20
2017-07-19T13:20:54.758Z,4.97
2017-07-19T13:23:22.280Z,5.80
2017-07-19T13:25:49.813Z,3.80
2017-07-19T13:28:17.331Z,5.13
2017-07-19T13:30:44.877Z,3.80
2017-07-19T13:33:12.396Z,5.80
2017-07-19T13:35:39.939Z,4.00
2017-07-19T13:38:07.455Z,4.07
2017-07-19T13:40:35.012Z,5.07
2017-07-19T13:43:02.532Z,4.23
2017-07-19T13:45:30.052Z,5.53
2017-07-19T13:47:58.350Z,6.63
2017-07-19T13:50:25.872Z,4.47
2017-07-19T13:52:53.415Z,5.20
2017-07-19T13:55:21.705Z,5.23
2017-07-19T13:57:49.253Z,4.57
2017-07-19T14:00:16.778Z,5.07
2017-07-19T14:02:45.082Z,5.00
2017-07-19T14:05:12.602Z,7.20
2017-07-19T14:07:40.142Z,6.53
2017-07-19T14:10:07.663Z,4.63
2017-07-19T14:12:35.191Z,5.03
2017-07-19T14:15:02.730Z,5.00
2017-07-19T14:17:30.247Z,4.13
2017-07-19T14:19:57.786Z,4.20
2017-07-19T14:22:25.309Z,5.60
2017-07-19T14:24:52.858Z,6.43
2017-07-19T14:27:20.382Z,5.27
2017-07-19T14:29:47.918Z,11.03
2017-07-19T14:32:15.430Z,4.87
2017-07-19T14:34:42.970Z,4.23
2017-07-19T14:37:10.494Z,6.13
2017-07-19T14:39:38.050Z,3.73
2017-07-19T14:42:05.574Z,5.27
2017-07-19T14:44:33.098Z,5.53
2017-07-19T14:47:00.642Z,6.10
2017-07-19T14:49:28.160Z,4.30
2017-07-19T14:51:55.710Z,4.07
2017-07-19T14:54:23.226Z,4.73
2017-07-19T14:56:50.761Z,5.40
2017-07-19T14:59:18.293Z,4.37
2017-07-19T15:01:45.838Z,5.03
2017-07-19T15:04:13.366Z,7.10
2017-07-19T15:06:40.902Z,4.90
2017-07-19T15:09:08.418Z,5.00
2017-07-19T15:11:35.958Z,6.37
2017-07-19T15:14:03.486Z,5.93
2017-07-19T15:16:31.050Z,5.90
2017-07-19T15:18:58.575Z,4.47
2017-07-19T15:21:26.098Z,5.53
2017-07-19T15:23:53.641Z,4.50
2017-07-19T15:26:21.171Z,4.43
2017-07-19T15:28:49.470Z,5.00
2017-07-19T15:31:17.000Z,4.90
2017-07-19T15:33:45.310Z,4.30
2017-07-19T15:36:12.830Z,4.37
2017-07-19T15:38:41.133Z,4.70
2017-07-19T15:41:08.657Z,4.30
2017-07-19T15:43:36.192Z,4.97
2017-07-19T15:46:03.712Z,4.07
2017-07-19T15:48:32.058Z,4.00
2017-07-19T15:50:59.579Z,5.03
2017-07-19T15:53:27.122Z,5.50
2017-07-19T15:55:54.666Z,4.73
2017-07-19T15:58:22.187Z,5.00
2017-07-19T16:00:49.727Z,5.30
2017-07-19T16:03:17.250Z,5.17
2017-07-19T16:05:44.787Z,5.20
2017-07-19T16:08:13.072Z,5.07
2017-07-19T16:10:40.614Z,6.10
2017-07-19T16:13:08.143Z,4.80
2017-07-19T16:15:35.695Z,5.40
2017-07-19T16:18:03.214Z,4.90
2017-07-19T16:20:30.817Z,5.13
2017-07-19T16:22:58.330Z,4.43
2017-07-19T16:25:25.859Z,5.40
2017-07-19T16:27:54.169Z,5.80
2017-07-19T16:30:21.682Z,5.50
2017-07-19T16:32:49.994Z,5.10
2017-07-19T16:35:17.516Z,5.17
2017-07-19T16:37:45.070Z,6.00
2017-07-19T16:40:12.590Z,5.67
2017-07-19T16:42:40.891Z,5.43
2017-07-19T16:45:08.412Z,5.73
2017-07-19T16:47:36.713Z,5.83
2017-07-19T16:50:04.237Z,5.97
2017-07-19T16:52:31.782Z,5.70
2017-07-19T16:54:59.304Z,5.70
2017-07-19T16:57:26.822Z,6.77
2017-07-19T16:59:54.354Z,6.67
2017-07-19T17:02:21.877Z,6.37
2017-07-19T17:04:49.422Z,5.30
2017-07-19T17:07:16.945Z,5.63
2017-07-19T17:09:44.483Z,6.13
2017-07-19T17:12:12.000Z,5.53
2017-07-19T17:14:39.542Z,6.43
2017-07-19T17:17:07.068Z,5.60
2017-07-19T17:19:34.618Z,6.17
2017-07-19T17:22:02.138Z,5.57
2017-07-19T17:24:29.660Z,5.70
2017-07-19T17:26:57.966Z,12.83
2017-07-19T17:29:25.492Z,6.73
2017-07-19T17:31:53.053Z,5.13
2017-07-19T17:34:20.584Z,5.50
2017-07-19T17:36:48.122Z,5.53
2017-07-19T17:39:16.406Z,6.30
2017-07-19T17:41:43.948Z,5.73
2017-07-19T17:44:11.469Z,6.43
2017-07-19T17:46:39.780Z,6.17
2017-07-19T17:49:07.300Z,5.60
2017-07-19T17:51:34.844Z,5.90
2017-07-19T17:54:03.136Z,5.57
2017-07-19T17:56:30.650Z,6.50
2017-07-19T17:58:58.958Z,6.17
2017-07-19T18:01:26.475Z,6.27
2017-07-19T18:03:54.016Z,7.03
2017-07-19T18:06:21.544Z,6.30
2017-07-19T18:08:49.103Z,8.13
2017-07-19T18:11:17.392Z,6.80
2017-07-19T18:13:44.931Z,7.77
2017-07-19T18:16:13.220Z,8.00
2017-07-19T18:18:40.758Z,6.17
2017-07-19T18:21:08.291Z,28.87
2017-07-19T18:23:35.850Z,29.03
2017-07-19T18:26:03.376Z,21.93
2017-07-19T18:28:30.898Z,13.60
2017-07-19T18:30:58.446Z,10.10
2017-07-19T18:33:25.969Z,12.50
2017-07-19T18:35:53.513Z,17.13
2017-07-19T18:38:21.036Z,9.00
2017-07-19T18:40:48.581Z,10.53
2017-07-19T18:43:16.113Z,8.67
2017-07-19T18:45:43.655Z,7.47
2017-07-19T18:48:11.184Z,10.13
2017-07-19T18:50:38.727Z,8.97
2017-07-19T18:53:06.246Z,7.00
2017-07-19T18:55:33.792Z,7.47
2017-07-19T18:58:01.322Z,7.20
2017-07-19T19:00:28.847Z,8.37
2017-07-19T19:02:56.397Z,10.27
2017-07-19T19:05:23.913Z,9.33
2017-07-19T19:07:51.460Z,6.87
2017-07-19T19:10:18.974Z,6.53
2017-07-19T19:12:46.525Z,9.63
2017-07-19T19:15:14.054Z,7.27
2017-07-19T19:17:41.596Z,7.07
2017-07-19T19:20:09.123Z,8.03
2017-07-19T19:22:36.670Z,13.37
2017-07-19T19:25:04.193Z,8.63
2017-07-19T19:27:31.735Z,7.33
2017-07-19T19:29:59.268Z,11.57
2017-07-19T19:32:27.579Z,5.40
2017-07-19T19:34:55.107Z,8.90
2017-07-19T19:37:23.393Z,5.40
2017-07-19T19:39:50.933Z,8.00
2017-07-19T19:42:18.455Z,6.43
2017-07-19T19:44:46.101Z,31.63
2017-07-19T19:47:13.631Z,10.43
2017-07-19T19:49:41.250Z,6.17
2017-07-19T19:52:08.775Z,11.13
2017-07-19T19:54:36.316Z,5.97
2017-07-19T19:57:04.607Z,16.27
2017-07-19T19:59:32.145Z,7.50
2017-07-19T20:01:59.667Z,8.90
2017-07-19T20:04:27.975Z,8.07
2017-07-19T20:06:55.495Z,13.33
2017-07-19T20:09:23.793Z,13.50
2017-07-19T20:11:51.340Z,5.60
2017-07-19T20:14:18.857Z,9.23
2017-07-19T20:16:47.165Z,7.03
2017-07-19T20:19:14.682Z,6.40
2017-07-19T20:21:42.262Z,6.33
2017-07-19T20:24:09.782Z,5.90
2017-07-19T20:26:37.318Z,8.53
2017-07-19T20:29:05.609Z,8.53
2017-07-19T20:31:33.142Z,9.57
2017-07-19T20:34:00.662Z,13.13
2017-07-19T20:36:28.214Z,8.40
2017-07-19T20:38:55.733Z,6.67
2017-07-19T20:41:24.015Z,14.33
2017-07-19T20:43:51.560Z,9.93
2017-07-19T20:46:19.088Z,15.13
2017-07-19T20:48:46.639Z,15.83
2017-07-19T20:51:14.927Z,17.77
2017-07-19T20:53:42.454Z,11.10
2017-07-19T20:56:09.996Z,7.10
2017-07-19T20:58:37.525Z,6.87
2017-07-19T21:01:05.075Z,20.83
2017-07-19T21:03:32.599Z,10.73
2017-07-19T21:06:00.129Z,18.50
2017-07-19T21:08:27.691Z,14.00
2017-07-19T21:10:55.569Z,14.30
2017-07-19T21:13:23.153Z,15.73
2017-07-19T21:15:50.717Z,9.90
2017-07-19T21:18:18.309Z,9.50
2017-07-19T21:20:46.646Z,12.07
2017-07-19T21:23:14.208Z,8.83
2017-07-19T21:25:41.793Z,11.23
2017-07-19T21:28:09.358Z,7.60
2017-07-19T21:30:36.935Z,9.53
2017-07-19T21:33:05.751Z,7.50
2017-07-19T21:35:33.367Z,10.03
2017-07-19T21:38:00.941Z,11.00
2017-07-19T21:40:28.505Z,10.83
2017-07-19T21:42:56.088Z,8.73
2017-07-19T21:45:23.656Z,8.83
2017-07-19T21:47:51.237Z,8.40
2017-07-19T21:50:18.801Z,7.23
2017-07-19T21:52:46.397Z,6.07
2017-07-19T21:55:13.976Z,10.10
2017-07-19T21:57:42.453Z,4.70
2017-07-19T22:00:10.044Z,7.57
2017-07-19T22:02:38.370Z,5.07
2017-07-19T22:05:05.952Z,4.00
2017-07-19T22:07:33.513Z,4.20
2017-07-19T22:10:01.101Z,4.87
2017-07-19T22:12:29.425Z,4.00
2017-07-19T22:14:56.988Z,4.60
2017-07-19T22:17:24.579Z,4.03
2017-07-19T22:19:52.151Z,6.03
2017-07-19T22:22:19.728Z,3.03
2017-07-19T22:24:47.297Z,3.33
2017-07-19T22:27:14.893Z,3.90
2017-07-19T22:29:42.454Z,3.90
2017-07-19T22:32:10.022Z,4.83
2017-07-19T22:34:37.613Z,5.83
2017-07-19T22:37:05.173Z,6.20
2017-07-19T22:39:32.777Z,6.80
2017-07-19T22:42:00.341Z,8.87
2017-07-19T22:44:27.917Z,8.30
2017-07-19T22:46:55.501Z,8.70
2017-07-19T22:49:23.063Z,6.50
2017-07-19T22:51:50.664Z,6.10
2017-07-19T22:54:18.223Z,7.33
2017-07-19T22:56:45.788Z,6.40
2017-07-19T22:59:13.364Z,5.30
2017-07-19T23:01:40.925Z,6.67
2017-07-19T23:04:08.524Z,10.70
2017-07-19T23:06:36.858Z,13.13
2017-07-19T23:09:04.424Z,18.50
2017-07-19T23:11:32.012Z,14.53
2017-07-19T23:14:00.340Z,10.00
2017-07-19T23:16:27.935Z,15.10
2017-07-19T23:18:55.501Z,14.07
2017-07-19T23:21:23.069Z,15.30
2017-07-19T23:23:50.660Z,11.27
2017-07-19T23:26:18.226Z,9.67
2017-07-19T23:28:45.819Z,9.97
2017-07-19T23:31:13.380Z,8.03
2017-07-19T23:33:40.936Z,8.40
2017-07-19T23:36:08.517Z,6.40
2017-07-19T23:38:36.080Z,6.93
2017-07-19T23:41:03.679Z,6.13
2017-07-19T23:43:32.004Z,6.57
2017-07-19T23:45:59.565Z,6.00
2017-07-19T23:48:27.165Z,5.37
2017-07-19T23:50:54.731Z,6.20
2017-07-19T23:53:23.083Z,5.93
2017-07-19T23:55:50.647Z,6.73
2017-07-19T23:58:18.209Z,5.70
